Ravels, Belgium
Current Conditions -  °F | °C
As of 1:59 PM on Saturday 25 Oct 2014 (Local Time) from EHGR Reporting Station
Haze Haze  
Wind Chill: 14°   Ceiling: 600
Heat Index: 14°   Visibility: 2.5mi
Dew Point: 13°   Wind: 6mph
Humidity: 94%   Direction: 220°SW
Pressure: 30.06"   Gusts: NA
Location:  51.37°N, 4.99°E
Report Text: EHGR 251159Z AUTO 22005KT 4000 BR BKN006 OVC007 14/13 Q1018 YLO
Loading
Personal Weather Stations






























Interactive Weather Map
Tropical Storm Tracking
New forecast layout! Learn more

10-Day Weather Forecast

Advertisements
Track Severe Weather on mobile